Flight Track Log - Related Links

Times and Time Zones

All times are in EDT time to prevent confusion due to time zone crossing. See the MKU302 flight status page for this flight to view local times or setup timezone preferences in your user account.

Time Position Orientation Groundspeed Altitude Reporting Facility
EDT Latitude Longitude Course Direction KTS MPH feet Rate Location/Type
Tue 02:10:57 PM 20.9333 -156.7500 298° West 150 173 4,100  Level Honolulu Center
Tue 02:11:57 PM 20.9500 -156.8000 290° West 150 173 5,500 1,300 Climbing Honolulu Center
Tue 02:12:57 PM 20.9500 -156.8333 270° West 140 161 6,700 1,100 Climbing Honolulu Center
Tue 02:13:57 PM 20.9500 -156.8833 270° West 180 207 7,700 650 Climbing Honolulu Center
Tue 02:14:57 PM 20.9333 -156.9500 255° West 210 242 8,000 150 Climbing Honolulu Center
Tue 02:15:00 PM 20.8596 -157.1179 240° Southwest  Level FlightAware Approximate
Tue 02:15:57 PM 20.9333 -157.0167 270° West 230 265 8,000  Level Honolulu Center
Tue 02:16:57 PM 20.9333 -157.0833 270° West 240 276 8,000  Level Honolulu Center
Tue 02:17:58 PM 20.9167 -157.1667 258° West 230 265 8,000  Level Honolulu Center
Tue 02:18:57 PM 20.9167 -157.2333 270° West 230 265 8,000  Level Honolulu Center
Tue 02:19:58 PM 20.9167 -157.3000 270° West 240 276 8,000 -99 Level Honolulu Center
Tue 02:20:58 PM 20.9333 -157.3667 285° West 240 276 7,800 -550 Descending Honolulu Center
Tue 02:21:58 PM 20.9500 -157.4333 285° West 240 276 6,900 -950 Descending Honolulu Center
Tue 02:22:58 PM 20.9667 -157.5000 285° West 240 276 5,900 -1,000 Descending Honolulu Center
Tue 02:23:58 PM 21.0000 -157.5833 293° West 240 276 4,900 -1,000 Descending Honolulu Center
Tue 02:24:58 PM 21.0167 -157.6500 285° West 240 276 3,900 -800 Descending Honolulu Center
Tue 02:25:58 PM 21.0500 -157.7000 306° West 230 265 3,300 -645 Descending Honolulu Center
Tue 02:26:59 PM 21.0833 -157.7667 298° West 240 276 2,600 -850 Descending Honolulu Center
Tue 02:27:58 PM 21.1167 -157.8333 298° West 220 253 1,600 -555 Descending Honolulu Center
Tue 02:28:58 PM 21.1500 -157.8833 306° West 210 242 1,500  Descending Honolulu Center
Tue 02:29:59 PM 21.1833 -157.9167 317° Northwest 180 207 1,600 50 Climbing Honolulu Center
Tue 02:30:59 PM 21.2333 -157.9333 343° North 170 196 1,600 -50 Level Honolulu Center
Tue 02:31:59 PM 21.2833 -157.9500 343° North 160 184 1,500 -400 Descending Honolulu Center
Tue 02:32:59 PM 21.3167 -157.9667 335° Northwest 130 150 800 -700 Descending Honolulu Center
Tue 02:34:00 PM 21.3187 -157.9224 90° East  Level Estimated

Login

Don't have an account? Register now (free) for customized features, flight alerts, and more!